Danville, PA

12:45 AM EST on December 21, 2014 (GMT -0500)
Mahoning Township | Change Station
CLOSE
Current Station
Personal Weather Station
Location: Danville, PA
Elevation: 510 ft
Nearby Weather Stations

Elev 510 ft 40.96 °N, 76.58 °W | Updated 1 minute ago

Overcast
Overcast
30.6 °F
Feels Like 31 °F
N
0.0
Wind Variable Wind from South

Today
High -- | Low -- °F
--% Chance of Precip.
Yesterday
High -- | Low -- °F
Precip. -- in
7:27 AM 4:41 PM
Waning Crescent, 1% visible
Pressure 30.30 in
Visibility 10.0 miles
Clouds Overcast 2900 ft
Windchill 31 °F
Dew Point 23 °F
Humidity 74%
Rainfall 0.00 in
Snow Depth Not available.
UV 0 out of 12
Pollen .10 out of 12
Air Quality Not available.
Flu Activity Not available.
METAR KSEG 210453Z AUTO 30003KT 10SM OVC029 00/M05 A3028 RMK AO2 SLP259 T00001050 400111011

More Conditions Fewer Conditions

Pressure 30.30 in
Visibility 10.0 miles
Clouds Overcast 2900 ft
Windchill 31 °F
Dew Point 23 °F
Humidity 74%
Rainfall 0.00 in
Snow Depth Not available.
UV 0 out of 12
Pollen .10 out of 12
Air Quality Not available.
Flu Activity Not available.
METAR KSEG 210453Z AUTO 30003KT 10SM OVC029 00/M05 A3028 RMK AO2 SLP259 T00001050 400111011

More Conditions Fewer Conditions

10-Day Weather Forecast

Almanac

Astronomy

Dec. 21, 2014 Rise Set
Actual Time
Civil Twilight
Nautical Twilight
Astronomical Twilight
Moon
Length of Visible Light
Length of Day
Tomorrow will be .
, % of the Moon is Illuminated

Today's Extremes

State Highs State Lows

Community

WunderPhotos

Upload Photos

1,779,359 photos uploaded!

WunderBlogs® & News

Nearby

Air Quality

  Air Quality AQ Index Pollutant
Not available.

Snow Depth

Station Depth Elevation

Earthquake Activity

City Distance Mag. Time & Date
Minimum magnitude displayed is 2.5.

Coastal Water Temperatures

Place Temperature

Nearby Weather Stations